sensor_id;sensor_type;location;lat;lon;timestamp;P1;durP1;ratioP1;P2;durP2;ratioP2
3865;SDS011;1948;53.250;10.412;2023-02-28T00:01:58;13.10;;;8.13;;
3865;SDS011;1948;53.250;10.412;2023-02-28T00:04:35;12.97;;;7.80;;
3865;SDS011;1948;53.250;10.412;2023-02-28T00:07:02;13.87;;;8.10;;
3865;SDS011;1948;53.250;10.412;2023-02-28T00:09:31;11.90;;;7.77;;
3865;SDS011;1948;53.250;10.412;2023-02-28T00:11:58;11.80;;;7.97;;
3865;SDS011;1948;53.250;10.412;2023-02-28T00:14:39;14.17;;;7.90;;
3865;SDS011;1948;53.250;10.412;2023-02-28T00:17:06;11.90;;;8.10;;
3865;SDS011;1948;53.250;10.412;2023-02-28T00:19:33;9.53;;;7.43;;
3865;SDS011;1948;53.250;10.412;2023-02-28T00:22:00;20.73;;;8.43;;
3865;SDS011;1948;53.250;10.412;2023-02-28T00:24:27;12.77;;;7.77;;
3865;SDS011;1948;53.250;10.412;2023-02-28T00:26:54;23.60;;;9.40;;
3865;SDS011;1948;53.250;10.412;2023-02-28T00:29:21;13.07;;;8.07;;
3865;SDS011;1948;53.250;10.412;2023-02-28T00:31:48;12.03;;;7.90;;
3865;SDS011;1948;53.250;10.412;2023-02-28T00:34:18;8.43;;;7.30;;
3865;SDS011;1948;53.250;10.412;2023-02-28T00:36:47;12.27;;;7.53;;
3865;SDS011;1948;53.250;10.412;2023-02-28T00:39:17;13.03;;;7.90;;
3865;SDS011;1948;53.250;10.412;2023-02-28T00:41:44;11.00;;;7.20;;
3865;SDS011;1948;53.250;10.412;2023-02-28T00:44:11;8.27;;;7.07;;
3865;SDS011;1948;53.250;10.412;2023-02-28T00:46:42;9.07;;;7.20;;
3865;SDS011;1948;53.250;10.412;2023-02-28T00:49:09;10.10;;;7.80;;
3865;SDS011;1948;53.250;10.412;2023-02-28T00:51:36;11.70;;;7.50;;
3865;SDS011;1948;53.250;10.412;2023-02-28T00:54:03;8.93;;;7.20;;
3865;SDS011;1948;53.250;10.412;2023-02-28T00:56:30;10.63;;;6.60;;
3865;SDS011;1948;53.250;10.412;2023-02-28T00:58:57;8.07;;;6.50;;
3865;SDS011;1948;53.250;10.412;2023-02-28T01:01:29;9.40;;;6.90;;
3865;SDS011;1948;53.250;10.412;2023-02-28T01:03:56;9.20;;;7.00;;
3865;SDS011;1948;53.250;10.412;2023-02-28T01:06:26;6.30;;;5.80;;
3865;SDS011;1948;53.250;10.412;2023-02-28T01:08:53;9.23;;;5.80;;
3865;SDS011;1948;53.250;10.412;2023-02-28T01:11:20;9.63;;;5.83;;
3865;SDS011;1948;53.250;10.412;2023-02-28T01:13:49;6.63;;;5.80;;
3865;SDS011;1948;53.250;10.412;2023-02-28T01:16:18;8.07;;;5.50;;
3865;SDS011;1948;53.250;10.412;2023-02-28T01:18:48;6.63;;;5.20;;
3865;SDS011;1948;53.250;10.412;2023-02-28T01:21:16;7.20;;;5.87;;
3865;SDS011;1948;53.250;10.412;2023-02-28T01:23:45;18.47;;;6.50;;
3865;SDS011;1948;53.250;10.412;2023-02-28T01:26:15;6.20;;;5.67;;
3865;SDS011;1948;53.250;10.412;2023-02-28T01:28:43;8.13;;;6.00;;
3865;SDS011;1948;53.250;10.412;2023-02-28T01:31:11;6.47;;;5.83;;
3865;SDS011;1948;53.250;10.412;2023-02-28T01:33:38;8.77;;;5.53;;
3865;SDS011;1948;53.250;10.412;2023-02-28T01:36:08;6.40;;;5.80;;
3865;SDS011;1948;53.250;10.412;2023-02-28T01:38:42;7.37;;;5.27;;
3865;SDS011;1948;53.250;10.412;2023-02-28T01:41:16;10.43;;;6.37;;
3865;SDS011;1948;53.250;10.412;2023-02-28T01:46:15;11.17;;;5.90;;
3865;SDS011;1948;53.250;10.412;2023-02-28T01:48:44;5.70;;;5.20;;
3865;SDS011;1948;53.250;10.412;2023-02-28T01:51:18;6.20;;;5.60;;
3865;SDS011;1948;53.250;10.412;2023-02-28T01:54:08;6.30;;;5.80;;
3865;SDS011;1948;53.250;10.412;2023-02-28T01:56:41;12.30;;;6.13;;
3865;SDS011;1948;53.250;10.412;2023-02-28T01:59:19;9.30;;;5.40;;
3865;SDS011;1948;53.250;10.412;2023-02-28T02:02:13;6.10;;;5.70;;
3865;SDS011;1948;53.250;10.412;2023-02-28T02:04:50;6.33;;;5.70;;
3865;SDS011;1948;53.250;10.412;2023-02-28T02:07:29;6.30;;;5.70;;
3865;SDS011;1948;53.250;10.412;2023-02-28T02:10:22;5.93;;;4.87;;
3865;SDS011;1948;53.250;10.412;2023-02-28T02:16:29;5.73;;;5.27;;
3865;SDS011;1948;53.250;10.412;2023-02-28T02:28:18;5.60;;;5.20;;
3865;SDS011;1948;53.250;10.412;2023-02-28T02:39:39;6.40;;;5.47;;
3865;SDS011;1948;53.250;10.412;2023-02-28T02:42:48;4.90;;;4.60;;
3865;SDS011;1948;53.250;10.412;2023-02-28T02:45:37;6.47;;;6.00;;
3865;SDS011;1948;53.250;10.412;2023-02-28T02:48:13;6.00;;;5.40;;
3865;SDS011;1948;53.250;10.412;2023-02-28T02:50:54;8.23;;;5.90;;
3865;SDS011;1948;53.250;10.412;2023-02-28T02:53:27;11.03;;;5.80;;
3865;SDS011;1948;53.250;10.412;2023-02-28T02:56:03;6.17;;;5.53;;
3865;SDS011;1948;53.250;10.412;2023-02-28T02:58:32;11.67;;;5.70;;
3865;SDS011;1948;53.250;10.412;2023-02-28T03:01:08;6.10;;;5.40;;
3865;SDS011;1948;53.250;10.412;2023-02-28T03:03:42;7.63;;;5.87;;
3865;SDS011;1948;53.250;10.412;2023-02-28T03:06:12;5.53;;;5.20;;
3865;SDS011;1948;53.250;10.412;2023-02-28T03:08:41;7.30;;;5.43;;
3865;SDS011;1948;53.250;10.412;2023-02-28T03:11:11;5.73;;;5.33;;
3865;SDS011;1948;53.250;10.412;2023-02-28T03:13:52;15.77;;;5.60;;
3865;SDS011;1948;53.250;10.412;2023-02-28T03:28:36;11.07;;;6.10;;
3865;SDS011;1948;53.250;10.412;2023-02-28T03:34:15;8.23;;;5.80;;
3865;SDS011;1948;53.250;10.412;2023-02-28T03:36:53;6.53;;;5.93;;
3865;SDS011;1948;53.250;10.412;2023-02-28T03:39:26;7.13;;;5.93;;
3865;SDS011;1948;53.250;10.412;2023-02-28T03:42:35;8.17;;;6.00;;
3865;SDS011;1948;53.250;10.412;2023-02-28T03:45:05;13.93;;;6.50;;
3865;SDS011;1948;53.250;10.412;2023-02-28T03:52:51;13.83;;;6.50;;
3865;SDS011;1948;53.250;10.412;2023-02-28T03:55:28;8.60;;;7.30;;
3865;SDS011;1948;53.250;10.412;2023-02-28T03:58:20;18.47;;;6.63;;
3865;SDS011;1948;53.250;10.412;2023-02-28T04:01:09;19.00;;;7.20;;
3865;SDS011;1948;53.250;10.412;2023-02-28T04:03:44;8.17;;;6.13;;
3865;SDS011;1948;53.250;10.412;2023-02-28T04:06:21;7.43;;;6.70;;
3865;SDS011;1948;53.250;10.412;2023-02-28T04:08:51;6.67;;;6.07;;
3865;SDS011;1948;53.250;10.412;2023-02-28T04:14:03;6.33;;;5.37;;
3865;SDS011;1948;53.250;10.412;2023-02-28T04:16:32;9.07;;;5.83;;
3865;SDS011;1948;53.250;10.412;2023-02-28T04:19:05;7.13;;;5.53;;
3865;SDS011;1948;53.250;10.412;2023-02-28T04:21:35;7.97;;;5.70;;
3865;SDS011;1948;53.250;10.412;2023-02-28T04:24:13;7.00;;;6.00;;
3865;SDS011;1948;53.250;10.412;2023-02-28T04:26:49;10.63;;;5.00;;
3865;SDS011;1948;53.250;10.412;2023-02-28T04:29:21;17.00;;;5.83;;
3865;SDS011;1948;53.250;10.412;2023-02-28T04:32:01;6.27;;;5.70;;
3865;SDS011;1948;53.250;10.412;2023-02-28T04:34:29;5.57;;;5.17;;
3865;SDS011;1948;53.250;10.412;2023-02-28T04:37:00;5.83;;;5.37;;
3865;SDS011;1948;53.250;10.412;2023-02-28T04:39:41;5.67;;;5.23;;
3865;SDS011;1948;53.250;10.412;2023-02-28T04:42:09;7.47;;;4.97;;
3865;SDS011;1948;53.250;10.412;2023-02-28T04:44:39;5.70;;;5.20;;
3865;SDS011;1948;53.250;10.412;2023-02-28T04:47:06;5.53;;;5.10;;
3865;SDS011;1948;53.250;10.412;2023-02-28T04:49:33;5.40;;;5.00;;
3865;SDS011;1948;53.250;10.412;2023-02-28T04:52:03;5.97;;;5.37;;
3865;SDS011;1948;53.250;10.412;2023-02-28T04:54:30;6.90;;;5.07;;
3865;SDS011;1948;53.250;10.412;2023-02-28T04:56:57;6.03;;;5.43;;
3865;SDS011;1948;53.250;10.412;2023-02-28T04:59:27;5.53;;;5.17;;
3865;SDS011;1948;53.250;10.412;2023-02-28T05:01:54;14.83;;;7.00;;
3865;SDS011;1948;53.250;10.412;2023-02-28T05:04:21;23.50;;;9.20;;
3865;SDS011;1948;53.250;10.412;2023-02-28T05:06:48;13.00;;;8.13;;
3865;SDS011;1948;53.250;10.412;2023-02-28T05:09:21;14.83;;;8.30;;
3865;SDS011;1948;53.250;10.412;2023-02-28T05:11:50;12.07;;;7.13;;
3865;SDS011;1948;53.250;10.412;2023-02-28T05:14:20;10.37;;;6.50;;
3865;SDS011;1948;53.250;10.412;2023-02-28T05:16:51;7.87;;;5.63;;
3865;SDS011;1948;53.250;10.412;2023-02-28T05:19:20;6.37;;;5.47;;
3865;SDS011;1948;53.250;10.412;2023-02-28T05:21:49;4.87;;;4.50;;
3865;SDS011;1948;53.250;10.412;2023-02-28T05:24:19;7.20;;;5.30;;
3865;SDS011;1948;53.250;10.412;2023-02-28T05:26:49;5.50;;;5.10;;
3865;SDS011;1948;53.250;10.412;2023-02-28T05:29:21;5.67;;;5.03;;
3865;SDS011;1948;53.250;10.412;2023-02-28T05:31:49;9.43;;;5.23;;
3865;SDS011;1948;53.250;10.412;2023-02-28T05:34:20;9.53;;;5.23;;
3865;SDS011;1948;53.250;10.412;2023-02-28T05:36:47;4.97;;;4.67;;
3865;SDS011;1948;53.250;10.412;2023-02-28T05:39:14;5.43;;;4.93;;
3865;SDS011;1948;53.250;10.412;2023-02-28T05:41:44;13.00;;;7.90;;
3865;SDS011;1948;53.250;10.412;2023-02-28T05:44:13;12.03;;;7.90;;
3865;SDS011;1948;53.250;10.412;2023-02-28T05:46:43;8.53;;;5.93;;
3865;SDS011;1948;53.250;10.412;2023-02-28T05:49:10;5.50;;;5.00;;
3865;SDS011;1948;53.250;10.412;2023-02-28T05:51:38;10.80;;;5.53;;
3865;SDS011;1948;53.250;10.412;2023-02-28T05:54:06;5.20;;;4.70;;
3865;SDS011;1948;53.250;10.412;2023-02-28T05:56:33;5.27;;;4.77;;
3865;SDS011;1948;53.250;10.412;2023-02-28T05:59:01;8.73;;;5.77;;
3865;SDS011;1948;53.250;10.412;2023-02-28T06:01:37;5.50;;;5.00;;
3865;SDS011;1948;53.250;10.412;2023-02-28T06:04:17;9.20;;;4.87;;
3865;SDS011;1948;53.250;10.412;2023-02-28T06:06:59;8.50;;;5.53;;
3865;SDS011;1948;53.250;10.412;2023-02-28T06:09:27;6.23;;;5.00;;
3865;SDS011;1948;53.250;10.412;2023-02-28T06:12:00;6.43;;;4.83;;
3865;SDS011;1948;53.250;10.412;2023-02-28T06:14:32;7.10;;;4.87;;
3865;SDS011;1948;53.250;10.412;2023-02-28T06:17:03;4.43;;;4.13;;
3865;SDS011;1948;53.250;10.412;2023-02-28T06:19:30;5.27;;;4.87;;
3865;SDS011;1948;53.250;10.412;2023-02-28T06:22:00;8.37;;;5.17;;
3865;SDS011;1948;53.250;10.412;2023-02-28T06:24:30;5.40;;;4.67;;
3865;SDS011;1948;53.250;10.412;2023-02-28T06:26:59;8.10;;;5.30;;
3865;SDS011;1948;53.250;10.412;2023-02-28T06:29:31;5.30;;;4.83;;
3865;SDS011;1948;53.250;10.412;2023-02-28T06:31:59;5.60;;;4.70;;
3865;SDS011;1948;53.250;10.412;2023-02-28T06:34:26;6.23;;;4.73;;
3865;SDS011;1948;53.250;10.412;2023-02-28T06:36:56;8.70;;;6.47;;
3865;SDS011;1948;53.250;10.412;2023-02-28T06:39:23;6.53;;;5.50;;
3865;SDS011;1948;53.250;10.412;2023-02-28T06:41:50;11.93;;;7.37;;
3865;SDS011;1948;53.250;10.412;2023-02-28T06:44:21;11.13;;;7.20;;
3865;SDS011;1948;53.250;10.412;2023-02-28T06:46:48;6.73;;;5.73;;
3865;SDS011;1948;53.250;10.412;2023-02-28T06:49:16;10.53;;;6.13;;
3865;SDS011;1948;53.250;10.412;2023-02-28T06:51:44;6.53;;;5.17;;
3865;SDS011;1948;53.250;10.412;2023-02-28T06:54:11;7.97;;;4.83;;
3865;SDS011;1948;53.250;10.412;2023-02-28T06:56:39;7.73;;;5.43;;
3865;SDS011;1948;53.250;10.412;2023-02-28T06:59:06;8.50;;;5.60;;
3865;SDS011;1948;53.250;10.412;2023-02-28T07:01:33;11.03;;;5.30;;
3865;SDS011;1948;53.250;10.412;2023-02-28T07:04:02;8.70;;;5.17;;
3865;SDS011;1948;53.250;10.412;2023-02-28T07:06:33;7.67;;;6.80;;
3865;SDS011;1948;53.250;10.412;2023-02-28T07:09:00;14.57;;;6.77;;
3865;SDS011;1948;53.250;10.412;2023-02-28T07:11:28;12.30;;;6.37;;
3865;SDS011;1948;53.250;10.412;2023-02-28T07:14:00;9.17;;;5.83;;
3865;SDS011;1948;53.250;10.412;2023-02-28T07:16:27;9.00;;;6.53;;
3865;SDS011;1948;53.250;10.412;2023-02-28T07:18:54;10.30;;;5.40;;
3865;SDS011;1948;53.250;10.412;2023-02-28T07:21:21;11.33;;;6.20;;
3865;SDS011;1948;53.250;10.412;2023-02-28T07:23:49;9.20;;;6.43;;
3865;SDS011;1948;53.250;10.412;2023-02-28T07:26:19;5.50;;;5.10;;
3865;SDS011;1948;53.250;10.412;2023-02-28T07:28:49;7.80;;;5.47;;
3865;SDS011;1948;53.250;10.412;2023-02-28T07:31:16;9.13;;;5.80;;
3865;SDS011;1948;53.250;10.412;2023-02-28T07:33:46;9.63;;;5.17;;
3865;SDS011;1948;53.250;10.412;2023-02-28T07:36:14;6.10;;;5.53;;
3865;SDS011;1948;53.250;10.412;2023-02-28T07:38:45;7.97;;;6.10;;
3865;SDS011;1948;53.250;10.412;2023-02-28T07:41:16;13.73;;;6.23;;
3865;SDS011;1948;53.250;10.412;2023-02-28T07:43:56;8.20;;;5.73;;
3865;SDS011;1948;53.250;10.412;2023-02-28T07:46:26;11.70;;;6.60;;
3865;SDS011;1948;53.250;10.412;2023-02-28T07:48:55;6.03;;;5.63;;
3865;SDS011;1948;53.250;10.412;2023-02-28T07:51:25;6.97;;;6.00;;
3865;SDS011;1948;53.250;10.412;2023-02-28T07:53:53;9.40;;;5.70;;
3865;SDS011;1948;53.250;10.412;2023-02-28T07:56:19;10.43;;;6.60;;
3865;SDS011;1948;53.250;10.412;2023-02-28T07:58:46;10.80;;;5.90;;
3865;SDS011;1948;53.250;10.412;2023-02-28T08:01:16;8.77;;;5.50;;
3865;SDS011;1948;53.250;10.412;2023-02-28T08:03:46;12.40;;;5.60;;
3865;SDS011;1948;53.250;10.412;2023-02-28T08:06:20;6.70;;;5.30;;
3865;SDS011;1948;53.250;10.412;2023-02-28T08:08:49;5.43;;;4.80;;
3865;SDS011;1948;53.250;10.412;2023-02-28T08:11:17;8.27;;;5.77;;
3865;SDS011;1948;53.250;10.412;2023-02-28T08:13:45;5.50;;;4.77;;
3865;SDS011;1948;53.250;10.412;2023-02-28T08:16:12;5.37;;;4.93;;
3865;SDS011;1948;53.250;10.412;2023-02-28T08:18:44;5.40;;;4.90;;
3865;SDS011;1948;53.250;10.412;2023-02-28T08:21:11;5.63;;;5.03;;
3865;SDS011;1948;53.250;10.412;2023-02-28T08:23:43;17.50;;;5.27;;
3865;SDS011;1948;53.250;10.412;2023-02-28T08:26:10;7.63;;;5.30;;
3865;SDS011;1948;53.250;10.412;2023-02-28T08:28:37;6.27;;;5.40;;
3865;SDS011;1948;53.250;10.412;2023-02-28T08:31:08;6.23;;;5.57;;
3865;SDS011;1948;53.250;10.412;2023-02-28T08:33:37;7.90;;;5.50;;
3865;SDS011;1948;53.250;10.412;2023-02-28T08:36:05;6.20;;;5.57;;
3865;SDS011;1948;53.250;10.412;2023-02-28T08:38:34;6.97;;;5.97;;
3865;SDS011;1948;53.250;10.412;2023-02-28T08:41:04;6.47;;;5.63;;
3865;SDS011;1948;53.250;10.412;2023-02-28T08:43:33;5.23;;;4.77;;
3865;SDS011;1948;53.250;10.412;2023-02-28T08:46:06;4.97;;;4.67;;
3865;SDS011;1948;53.250;10.412;2023-02-28T08:48:34;6.27;;;4.60;;
3865;SDS011;1948;53.250;10.412;2023-02-28T08:51:05;6.10;;;5.30;;
3865;SDS011;1948;53.250;10.412;2023-02-28T08:53:39;5.10;;;4.70;;
3865;SDS011;1948;53.250;10.412;2023-02-28T08:56:10;6.37;;;5.20;;
3865;SDS011;1948;53.250;10.412;2023-02-28T08:58:43;7.63;;;4.70;;
3865;SDS011;1948;53.250;10.412;2023-02-28T09:03:44;7.90;;;4.60;;
3865;SDS011;1948;53.250;10.412;2023-02-28T09:06:18;6.30;;;4.43;;
3865;SDS011;1948;53.250;10.412;2023-02-28T09:08:48;4.70;;;4.40;;
3865;SDS011;1948;53.250;10.412;2023-02-28T09:11:16;7.20;;;4.63;;
3865;SDS011;1948;53.250;10.412;2023-02-28T09:13:44;6.20;;;5.17;;
3865;SDS011;1948;53.250;10.412;2023-02-28T09:16:15;6.87;;;5.30;;
3865;SDS011;1948;53.250;10.412;2023-02-28T09:18:48;46.50;;;23.73;;
3865;SDS011;1948;53.250;10.412;2023-02-28T09:21:15;34.33;;;22.20;;
3865;SDS011;1948;53.250;10.412;2023-02-28T09:23:45;8.80;;;6.30;;
3865;SDS011;1948;53.250;10.412;2023-02-28T09:26:16;6.27;;;5.77;;
3865;SDS011;1948;53.250;10.412;2023-02-28T09:28:46;10.43;;;5.63;;
3865;SDS011;1948;53.250;10.412;2023-02-28T09:31:14;8.23;;;6.40;;
3865;SDS011;1948;53.250;10.412;2023-02-28T09:33:53;4.93;;;4.60;;
3865;SDS011;1948;53.250;10.412;2023-02-28T09:36:25;7.17;;;4.97;;
3865;SDS011;1948;53.250;10.412;2023-02-28T09:39:09;8.27;;;3.63;;
3865;SDS011;1948;53.250;10.412;2023-02-28T09:41:42;4.37;;;4.00;;
3865;SDS011;1948;53.250;10.412;2023-02-28T09:44:38;4.23;;;3.83;;
3865;SDS011;1948;53.250;10.412;2023-02-28T09:49:57;5.67;;;3.47;;
3865;SDS011;1948;53.250;10.412;2023-02-28T09:52:32;3.70;;;3.50;;
3865;SDS011;1948;53.250;10.412;2023-02-28T09:55:04;4.63;;;3.00;;
3865;SDS011;1948;53.250;10.412;2023-02-28T09:57:41;11.20;;;5.67;;
3865;SDS011;1948;53.250;10.412;2023-02-28T10:00:18;2.70;;;2.60;;
3865;SDS011;1948;53.250;10.412;2023-02-28T10:06:26;1.50;;;1.40;;
3865;SDS011;1948;53.250;10.412;2023-02-28T10:09:13;1.10;;;1.10;;
3865;SDS011;1948;53.250;10.412;2023-02-28T10:11:52;2.10;;;1.50;;
3865;SDS011;1948;53.250;10.412;2023-02-28T10:14:31;3.63;;;1.57;;
3865;SDS011;1948;53.250;10.412;2023-02-28T10:19:53;1.70;;;1.70;;
3865;SDS011;1948;53.250;10.412;2023-02-28T10:22:36;1.77;;;1.57;;
3865;SDS011;1948;53.250;10.412;2023-02-28T10:25:44;2.10;;;1.83;;
3865;SDS011;1948;53.250;10.412;2023-02-28T10:28:20;1.83;;;1.70;;
3865;SDS011;1948;53.250;10.412;2023-02-28T10:30:48;2.53;;;2.33;;
3865;SDS011;1948;53.250;10.412;2023-02-28T10:36:05;3.03;;;2.23;;
3865;SDS011;1948;53.250;10.412;2023-02-28T10:38:40;1.93;;;1.80;;
3865;SDS011;1948;53.250;10.412;2023-02-28T10:41:16;6.33;;;2.83;;
3865;SDS011;1948;53.250;10.412;2023-02-28T10:47:03;2.60;;;2.50;;
3865;SDS011;1948;53.250;10.412;2023-02-28T10:49:33;2.50;;;2.40;;
3865;SDS011;1948;53.250;10.412;2023-02-28T10:52:00;3.10;;;2.90;;
3865;SDS011;1948;53.250;10.412;2023-02-28T10:57:18;3.33;;;3.00;;
3865;SDS011;1948;53.250;10.412;2023-02-28T10:59:53;3.37;;;2.83;;
3865;SDS011;1948;53.250;10.412;2023-02-28T11:02:52;7.70;;;2.97;;
3865;SDS011;1948;53.250;10.412;2023-02-28T11:05:32;4.40;;;3.37;;
3865;SDS011;1948;53.250;10.412;2023-02-28T11:10:38;3.50;;;3.30;;
3865;SDS011;1948;53.250;10.412;2023-02-28T11:13:05;7.07;;;3.17;;
3865;SDS011;1948;53.250;10.412;2023-02-28T11:15:33;3.10;;;2.90;;
3865;SDS011;1948;53.250;10.412;2023-02-28T11:20:39;4.73;;;2.30;;
3865;SDS011;1948;53.250;10.412;2023-02-28T11:23:10;4.30;;;1.40;;
3865;SDS011;1948;53.250;10.412;2023-02-28T11:25:40;1.80;;;1.70;;
3865;SDS011;1948;53.250;10.412;2023-02-28T11:28:24;1.70;;;1.60;;
3865;SDS011;1948;53.250;10.412;2023-02-28T11:31:04;1.90;;;1.80;;
3865;SDS011;1948;53.250;10.412;2023-02-28T11:38:55;1.33;;;1.20;;
3865;SDS011;1948;53.250;10.412;2023-02-28T11:44:54;1.63;;;1.53;;
3865;SDS011;1948;53.250;10.412;2023-02-28T11:51:00;5.20;;;1.57;;
3865;SDS011;1948;53.250;10.412;2023-02-28T11:56:49;1.73;;;1.23;;
3865;SDS011;1948;53.250;10.412;2023-02-28T12:00:33;1.70;;;1.50;;
3865;SDS011;1948;53.250;10.412;2023-02-28T12:05:58;3.80;;;1.80;;
3865;SDS011;1948;53.250;10.412;2023-02-28T12:21:45;3.60;;;2.10;;
3865;SDS011;1948;53.250;10.412;2023-02-28T12:24:39;2.03;;;1.80;;
3865;SDS011;1948;53.250;10.412;2023-02-28T12:27:49;1.40;;;1.30;;
3865;SDS011;1948;53.250;10.412;2023-02-28T12:30:21;2.30;;;2.20;;
3865;SDS011;1948;53.250;10.412;2023-02-28T12:33:03;1.63;;;1.53;;
3865;SDS011;1948;53.250;10.412;2023-02-28T12:38:27;2.00;;;1.90;;
3865;SDS011;1948;53.250;10.412;2023-02-28T12:41:19;4.83;;;2.23;;
3865;SDS011;1948;53.250;10.412;2023-02-28T12:44:07;1.70;;;1.70;;
3865;SDS011;1948;53.250;10.412;2023-02-28T12:46:48;4.03;;;1.90;;
3865;SDS011;1948;53.250;10.412;2023-02-28T12:49:25;2.00;;;1.40;;
3865;SDS011;1948;53.250;10.412;2023-02-28T12:52:08;2.23;;;1.57;;
3865;SDS011;1948;53.250;10.412;2023-02-28T12:54:50;1.43;;;1.43;;
3865;SDS011;1948;53.250;10.412;2023-02-28T13:09:01;6.00;;;2.10;;
3865;SDS011;1948;53.250;10.412;2023-02-28T13:19:32;1.90;;;1.80;;
3865;SDS011;1948;53.250;10.412;2023-02-28T13:22:05;2.33;;;2.20;;
3865;SDS011;1948;53.250;10.412;2023-02-28T13:27:52;1.80;;;1.70;;
3865;SDS011;1948;53.250;10.412;2023-02-28T13:31:08;2.03;;;1.93;;
3865;SDS011;1948;53.250;10.412;2023-02-28T13:38:55;2.30;;;2.10;;
3865;SDS011;1948;53.250;10.412;2023-02-28T13:46:25;3.10;;;2.90;;
3865;SDS011;1948;53.250;10.412;2023-02-28T13:48:52;2.23;;;1.83;;
3865;SDS011;1948;53.250;10.412;2023-02-28T13:57:45;1.90;;;1.80;;
3865;SDS011;1948;53.250;10.412;2023-02-28T14:07:25;1.60;;;1.60;;
3865;SDS011;1948;53.250;10.412;2023-02-28T14:10:03;1.80;;;1.70;;
3865;SDS011;1948;53.250;10.412;2023-02-28T14:15:46;5.10;;;1.80;;
3865;SDS011;1948;53.250;10.412;2023-02-28T14:19:02;1.80;;;1.70;;
3865;SDS011;1948;53.250;10.412;2023-02-28T14:38:58;2.13;;;1.80;;
3865;SDS011;1948;53.250;10.412;2023-02-28T14:41:41;2.73;;;1.83;;
3865;SDS011;1948;53.250;10.412;2023-02-28T14:44:20;5.03;;;1.73;;
3865;SDS011;1948;53.250;10.412;2023-02-28T14:46:56;1.60;;;1.60;;
3865;SDS011;1948;53.250;10.412;2023-02-28T14:49:41;1.33;;;1.33;;
3865;SDS011;1948;53.250;10.412;2023-02-28T14:54:57;1.80;;;1.70;;
3865;SDS011;1948;53.250;10.412;2023-02-28T14:57:31;1.93;;;1.83;;
3865;SDS011;1948;53.250;10.412;2023-02-28T15:00:03;1.73;;;1.73;;
3865;SDS011;1948;53.250;10.412;2023-02-28T15:02:42;1.93;;;1.30;;
3865;SDS011;1948;53.250;10.412;2023-02-28T15:07:46;1.90;;;1.80;;
3865;SDS011;1948;53.250;10.412;2023-02-28T15:10:17;4.70;;;4.40;;
3865;SDS011;1948;53.250;10.412;2023-02-28T15:12:51;3.90;;;3.70;;
3865;SDS011;1948;53.250;10.412;2023-02-28T15:15:24;6.77;;;6.03;;
3865;SDS011;1948;53.250;10.412;2023-02-28T15:21:36;2.10;;;2.00;;
3865;SDS011;1948;53.250;10.412;2023-02-28T15:26:51;1.63;;;1.53;;
3865;SDS011;1948;53.250;10.412;2023-02-28T15:29:26;4.10;;;1.83;;
3865;SDS011;1948;53.250;10.412;2023-02-28T15:34:35;2.00;;;1.87;;
3865;SDS011;1948;53.250;10.412;2023-02-28T15:43:27;6.03;;;1.50;;
3865;SDS011;1948;53.250;10.412;2023-02-28T15:46:04;1.70;;;1.70;;
3865;SDS011;1948;53.250;10.412;2023-02-28T15:48:58;1.60;;;1.50;;
3865;SDS011;1948;53.250;10.412;2023-02-28T15:51:33;1.50;;;1.40;;
3865;SDS011;1948;53.250;10.412;2023-02-28T15:54:07;1.47;;;1.37;;
3865;SDS011;1948;53.250;10.412;2023-02-28T15:56:44;1.50;;;1.40;;
3865;SDS011;1948;53.250;10.412;2023-02-28T15:59:16;3.03;;;1.63;;
3865;SDS011;1948;53.250;10.412;2023-02-28T16:02:01;2.37;;;1.40;;
3865;SDS011;1948;53.250;10.412;2023-02-28T16:07:46;2.00;;;1.90;;
3865;SDS011;1948;53.250;10.412;2023-02-28T16:10:15;1.97;;;1.87;;
3865;SDS011;1948;53.250;10.412;2023-02-28T16:12:42;1.50;;;1.50;;
3865;SDS011;1948;53.250;10.412;2023-02-28T16:15:18;1.47;;;1.40;;
3865;SDS011;1948;53.250;10.412;2023-02-28T16:17:57;1.50;;;1.50;;
3865;SDS011;1948;53.250;10.412;2023-02-28T16:20:25;11.33;;;1.93;;
3865;SDS011;1948;53.250;10.412;2023-02-28T16:22:55;4.10;;;1.93;;
3865;SDS011;1948;53.250;10.412;2023-02-28T16:25:33;1.60;;;1.10;;
3865;SDS011;1948;53.250;10.412;2023-02-28T16:28:07;1.57;;;1.47;;
3865;SDS011;1948;53.250;10.412;2023-02-28T16:30:52;5.03;;;1.70;;
3865;SDS011;1948;53.250;10.412;2023-02-28T16:33:22;1.87;;;1.70;;
3865;SDS011;1948;53.250;10.412;2023-02-28T16:35:49;4.67;;;1.70;;
3865;SDS011;1948;53.250;10.412;2023-02-28T16:38:18;3.03;;;1.60;;
3865;SDS011;1948;53.250;10.412;2023-02-28T16:40:48;8.47;;;2.40;;
3865;SDS011;1948;53.250;10.412;2023-02-28T16:43:17;1.83;;;1.83;;
3865;SDS011;1948;53.250;10.412;2023-02-28T16:45:58;1.60;;;1.40;;
3865;SDS011;1948;53.250;10.412;2023-02-28T16:48:29;7.00;;;2.37;;
3865;SDS011;1948;53.250;10.412;2023-02-28T16:50:58;5.03;;;1.80;;
3865;SDS011;1948;53.250;10.412;2023-02-28T16:53:25;1.60;;;1.50;;
3865;SDS011;1948;53.250;10.412;2023-02-28T16:55:56;4.43;;;1.57;;
3865;SDS011;1948;53.250;10.412;2023-02-28T16:58:23;1.80;;;1.70;;
3865;SDS011;1948;53.250;10.412;2023-02-28T17:00:56;2.20;;;2.10;;
3865;SDS011;1948;53.250;10.412;2023-02-28T17:03:26;2.00;;;1.90;;
3865;SDS011;1948;53.250;10.412;2023-02-28T17:05:59;4.43;;;2.83;;
3865;SDS011;1948;53.250;10.412;2023-02-28T17:08:29;2.53;;;2.33;;
3865;SDS011;1948;53.250;10.412;2023-02-28T17:10:58;2.77;;;2.57;;
3865;SDS011;1948;53.250;10.412;2023-02-28T17:13:25;3.43;;;2.40;;
3865;SDS011;1948;53.250;10.412;2023-02-28T17:15:56;6.87;;;2.53;;
3865;SDS011;1948;53.250;10.412;2023-02-28T17:18:23;8.77;;;2.73;;
3865;SDS011;1948;53.250;10.412;2023-02-28T17:20:50;3.33;;;3.03;;
3865;SDS011;1948;53.250;10.412;2023-02-28T17:23:16;12.57;;;3.43;;
3865;SDS011;1948;53.250;10.412;2023-02-28T17:25:46;3.33;;;3.07;;
3865;SDS011;1948;53.250;10.412;2023-02-28T17:28:23;3.20;;;2.90;;
3865;SDS011;1948;53.250;10.412;2023-02-28T17:30:50;5.20;;;2.63;;
3865;SDS011;1948;53.250;10.412;2023-02-28T17:33:17;13.53;;;4.00;;
3865;SDS011;1948;53.250;10.412;2023-02-28T17:35:44;4.40;;;3.93;;
3865;SDS011;1948;53.250;10.412;2023-02-28T17:38:14;5.10;;;4.03;;
3865;SDS011;1948;53.250;10.412;2023-02-28T17:40:43;7.87;;;4.47;;
3865;SDS011;1948;53.250;10.412;2023-02-28T17:43:11;6.83;;;4.00;;
3865;SDS011;1948;53.250;10.412;2023-02-28T17:45:40;9.60;;;4.10;;
3865;SDS011;1948;53.250;10.412;2023-02-28T17:48:11;8.27;;;4.17;;
3865;SDS011;1948;53.250;10.412;2023-02-28T17:50:38;17.03;;;5.53;;
3865;SDS011;1948;53.250;10.412;2023-02-28T17:53:05;5.67;;;5.13;;
3865;SDS011;1948;53.250;10.412;2023-02-28T17:55:32;15.60;;;7.63;;
3865;SDS011;1948;53.250;10.412;2023-02-28T17:58:00;18.23;;;7.40;;
3865;SDS011;1948;53.250;10.412;2023-02-28T18:00:30;15.53;;;8.03;;
3865;SDS011;1948;53.250;10.412;2023-02-28T18:03:00;16.83;;;8.40;;
3865;SDS011;1948;53.250;10.412;2023-02-28T18:05:27;7.17;;;5.73;;
3865;SDS011;1948;53.250;10.412;2023-02-28T18:07:54;8.93;;;5.23;;
3865;SDS011;1948;53.250;10.412;2023-02-28T18:10:22;16.23;;;5.90;;
3865;SDS011;1948;53.250;10.412;2023-02-28T18:12:50;10.07;;;4.67;;
3865;SDS011;1948;53.250;10.412;2023-02-28T18:15:20;11.83;;;6.70;;
3865;SDS011;1948;53.250;10.412;2023-02-28T18:17:50;25.63;;;7.30;;
3865;SDS011;1948;53.250;10.412;2023-02-28T18:20:17;19.90;;;7.03;;
3865;SDS011;1948;53.250;10.412;2023-02-28T18:22:47;15.77;;;8.87;;
3865;SDS011;1948;53.250;10.412;2023-02-28T18:25:14;8.93;;;6.47;;
3865;SDS011;1948;53.250;10.412;2023-02-28T18:27:45;13.63;;;7.47;;
3865;SDS011;1948;53.250;10.412;2023-02-28T18:30:25;11.40;;;5.00;;
3865;SDS011;1948;53.250;10.412;2023-02-28T18:33:00;11.30;;;6.60;;
3865;SDS011;1948;53.250;10.412;2023-02-28T18:35:28;15.33;;;9.00;;
3865;SDS011;1948;53.250;10.412;2023-02-28T18:41:18;19.40;;;11.77;;
3865;SDS011;1948;53.250;10.412;2023-02-28T18:43:40;15.10;;;9.00;;
3865;SDS011;1948;53.250;10.412;2023-02-28T18:46:10;14.33;;;8.70;;
3865;SDS011;1948;53.250;10.412;2023-02-28T18:48:42;16.40;;;8.90;;
3865;SDS011;1948;53.250;10.412;2023-02-28T18:51:13;11.20;;;6.47;;
3865;SDS011;1948;53.250;10.412;2023-02-28T18:53:53;17.50;;;7.10;;